Portada
METAR-TAF:

METAR-TAF

Aeroports :

Jabalpur, Índia

latitud: 23-10-54N, longitud: 80-03-31E, altitud: 495 m

Observació

L'informe es va fer fa 4 hores i 29 minuts, a les 13:30 UTC
Vent 4 kt del Sud/Sud-Est
Temperatura 27°C
Humitat 74%
Pressió 1011 hPa
Visibilitat: 4000 m
calitja

METAR: VAJB 231330Z 16004KT 4000 HZ NSC 27/22 Q1011

Hora: 23:29 (17:59 UTC)


TAF: manca

Observacions i pronòstics meteorològics de més de 4000 aeroports (METAR i TAF).

Les estacions disponibles són els punts grocs i vermells al mapa.

Posi el ratolí al punt desitjat per veure el nom de l'estació.

Feu clic per veure les observacions i els pronòstics meteorològics.

Per canviar el mapa: feu clic els botons verds amb una creu de color negre per apropar; al botó verd amb un guió per allunyar la imatge; o en les fletxes verdes per a mapes adjacents.


METAR-TAF: